createdAt,value
2022-10-11T00:02:08.492Z,9.10
2022-10-11T00:04:35.257Z,9.02
2022-10-11T00:07:02.197Z,9.05
2022-10-11T00:09:28.936Z,8.98
2022-10-11T00:11:56.814Z,9.23
2022-10-11T00:14:26.198Z,9.20
2022-10-11T00:16:54.098Z,9.31
2022-10-11T00:19:21.578Z,9.35
2022-10-11T00:21:48.589Z,9.34
2022-10-11T00:24:15.599Z,9.52
2022-10-11T00:26:46.540Z,9.67
2022-10-11T00:29:14.390Z,9.49
2022-10-11T00:31:41.320Z,9.42
2022-10-11T00:34:08.633Z,9.56
2022-10-11T00:36:35.531Z,9.66
2022-10-11T00:39:02.543Z,9.51
2022-10-11T00:41:29.367Z,9.28
2022-10-11T00:44:21.008Z,9.00
2022-10-11T00:47:18.861Z,8.62
2022-10-11T00:49:54.291Z,8.65
2022-10-11T00:52:29.246Z,9.03
2022-10-11T00:54:58.384Z,9.15
2022-10-11T00:57:28.036Z,9.12
2022-10-11T00:59:56.826Z,8.86
2022-10-11T01:02:24.328Z,8.94
2022-10-11T01:05:05.692Z,9.18
2022-10-11T01:07:39.376Z,9.37
2022-10-11T01:10:06.283Z,9.36
2022-10-11T01:12:33.597Z,9.36
2022-10-11T01:15:26.868Z,9.60
2022-10-11T01:18:01.234Z,9.64
2022-10-11T01:20:58.122Z,9.84
2022-10-11T01:24:17.791Z,9.95
2022-10-11T01:27:31.213Z,10.04
2022-10-11T01:30:42.334Z,10.14
2022-10-11T01:33:20.947Z,10.15
2022-10-11T01:35:53.728Z,10.11
2022-10-11T01:39:07.890Z,9.90
2022-10-11T01:41:42.842Z,9.79
2022-10-11T01:44:12.541Z,9.68
2022-10-11T01:46:39.524Z,9.52
2022-10-11T01:49:06.552Z,9.43
2022-10-11T01:51:37.877Z,9.41
2022-10-11T01:54:14.621Z,9.44
2022-10-11T01:57:22.746Z,9.35
2022-10-11T02:00:13.934Z,9.05
2022-10-11T02:02:47.348Z,8.98
2022-10-11T02:05:34.265Z,9.21
2022-10-11T02:08:52.442Z,9.21
2022-10-11T02:11:26.928Z,9.30
2022-10-11T02:14:01.056Z,9.32
2022-10-11T02:16:34.255Z,9.46
2022-10-11T02:19:04.487Z,9.47
2022-10-11T02:21:34.607Z,9.49
2022-10-11T02:24:05.970Z,9.52
2022-10-11T02:26:34.517Z,9.58
2022-10-11T02:29:08.646Z,9.65
2022-10-11T02:31:36.516Z,9.71
2022-10-11T02:34:09.893Z,9.74
2022-10-11T02:36:47.392Z,9.81
2022-10-11T02:39:22.255Z,9.58
2022-10-11T02:41:52.307Z,9.64
2022-10-11T02:44:32.430Z,9.48
2022-10-11T02:47:01.006Z,9.33
2022-10-11T02:49:30.024Z,9.20
2022-10-11T02:51:58.582Z,9.20
2022-10-11T02:54:26.762Z,9.42
2022-10-11T02:56:53.643Z,9.44
2022-10-11T02:59:20.470Z,9.49
2022-10-11T03:01:47.364Z,9.50
2022-10-11T03:04:14.324Z,9.46
2022-10-11T03:06:41.156Z,9.55
2022-10-11T03:09:08.018Z,9.55
2022-10-11T03:11:34.870Z,9.31
2022-10-11T03:14:01.711Z,9.27
2022-10-11T03:16:28.608Z,9.24
2022-10-11T03:18:55.399Z,9.21
2022-10-11T03:21:22.175Z,9.07
2022-10-11T03:23:49.589Z,8.72
2022-10-11T03:26:16.445Z,8.52
2022-10-11T03:28:43.451Z,8.56
2022-10-11T03:31:10.255Z,8.68
2022-10-11T03:33:37.008Z,8.68
2022-10-11T03:36:04.239Z,8.73
2022-10-11T03:38:31.318Z,8.65
2022-10-11T03:40:58.111Z,8.52
2022-10-11T03:43:25.083Z,8.52
2022-10-11T03:45:51.901Z,8.60
2022-10-11T03:48:18.785Z,8.75
2022-10-11T03:50:45.667Z,8.82
2022-10-11T03:53:12.509Z,8.88
2022-10-11T03:55:40.089Z,8.96
2022-10-11T03:58:08.151Z,9.04
2022-10-11T04:00:35.706Z,9.14
2022-10-11T04:03:02.665Z,8.90
2022-10-11T04:05:30.381Z,8.85
2022-10-11T04:07:57.264Z,8.92
2022-10-11T04:10:24.126Z,9.16
2022-10-11T04:12:51.064Z,9.50
2022-10-11T04:15:17.838Z,9.80
2022-10-11T04:17:46.899Z,10.36
2022-10-11T04:20:14.068Z,10.94
2022-10-11T04:22:40.874Z,11.12
2022-10-11T04:25:08.464Z,11.09
2022-10-11T04:27:35.713Z,11.35
2022-10-11T04:30:02.768Z,11.38
2022-10-11T04:32:29.535Z,11.43
2022-10-11T04:34:56.352Z,11.47
2022-10-11T04:40:24.027Z,11.54
2022-10-11T04:42:50.865Z,11.62
2022-10-11T04:45:17.703Z,11.62
2022-10-11T04:47:49.073Z,11.75
2022-10-11T04:50:16.208Z,11.87
2022-10-11T04:52:42.975Z,12.01
2022-10-11T04:55:10.837Z,12.18
2022-10-11T04:57:37.646Z,12.28
2022-10-11T05:00:05.434Z,12.27
2022-10-11T05:02:32.431Z,12.26
2022-10-11T05:04:59.435Z,12.46
2022-10-11T05:07:26.180Z,12.63
2022-10-11T05:09:53.010Z,12.71
2022-10-11T05:12:19.852Z,12.66
2022-10-11T05:14:49.747Z,12.62
2022-10-11T05:17:16.714Z,12.64
2022-10-11T05:19:43.537Z,12.72
2022-10-11T05:22:10.495Z,12.70
2022-10-11T05:24:37.551Z,12.78
2022-10-11T05:27:04.333Z,12.92
2022-10-11T05:29:31.060Z,12.98
2022-10-11T05:31:57.880Z,13.07
2022-10-11T05:34:24.700Z,12.87
2022-10-11T05:36:51.522Z,12.75
2022-10-11T05:39:18.396Z,12.79
2022-10-11T05:41:45.272Z,12.91
2022-10-11T05:44:12.417Z,12.96
2022-10-11T05:46:39.439Z,13.00
2022-10-11T05:49:06.307Z,13.10
2022-10-11T05:51:33.142Z,13.13
2022-10-11T05:54:00.256Z,13.06
2022-10-11T05:56:27.125Z,13.10
2022-10-11T05:58:54.956Z,13.20
2022-10-11T06:01:27.703Z,13.39
2022-10-11T06:03:54.627Z,13.37
2022-10-11T06:06:21.961Z,13.33
2022-10-11T06:08:48.916Z,13.51
2022-10-11T06:11:21.882Z,13.55
2022-10-11T06:13:48.950Z,13.62
2022-10-11T06:16:15.881Z,13.61
2022-10-11T06:18:42.730Z,13.52
2022-10-11T06:21:09.680Z,13.31
2022-10-11T06:23:36.529Z,13.31
2022-10-11T06:26:08.570Z,13.43
2022-10-11T06:28:37.138Z,13.47
2022-10-11T06:31:06.581Z,13.42
2022-10-11T06:33:34.266Z,13.82
2022-10-11T06:36:08.329Z,14.06
2022-10-11T06:38:35.344Z,13.70
2022-10-11T06:41:19.320Z,14.08
2022-10-11T06:43:46.374Z,14.33
2022-10-11T06:46:13.205Z,14.09
2022-10-11T06:48:42.215Z,14.20
2022-10-11T06:51:10.079Z,14.37
2022-10-11T06:53:37.052Z,14.54
2022-10-11T06:56:06.204Z,14.46
2022-10-11T06:58:33.875Z,14.32
2022-10-11T07:01:13.190Z,14.44
2022-10-11T07:03:40.101Z,14.20
2022-10-11T07:06:26.805Z,14.21
2022-10-11T07:08:53.918Z,14.03
2022-10-11T07:11:27.376Z,13.96
2022-10-11T07:13:57.031Z,14.02
2022-10-11T07:16:24.711Z,13.90
2022-10-11T07:19:00.186Z,14.06
2022-10-11T07:21:28.817Z,14.19
2022-10-11T07:23:55.704Z,14.16
2022-10-11T07:26:22.843Z,14.22
2022-10-11T07:28:49.975Z,14.29
2022-10-11T07:31:24.911Z,14.53
2022-10-11T07:33:51.728Z,14.80
2022-10-11T07:36:18.673Z,14.61
2022-10-11T07:38:47.047Z,14.51
2022-10-11T07:41:14.356Z,14.54
2022-10-11T07:43:41.647Z,14.82
2022-10-11T07:46:09.165Z,14.81
2022-10-11T07:48:36.942Z,15.12
2022-10-11T07:51:29.946Z,15.14
2022-10-11T07:53:57.259Z,15.14
2022-10-11T07:56:28.902Z,15.19
2022-10-11T07:58:58.885Z,14.95
2022-10-11T08:01:28.328Z,15.05
2022-10-11T08:03:55.633Z,15.19
2022-10-11T08:06:24.308Z,15.53
2022-10-11T08:08:51.104Z,15.88
2022-10-11T08:11:27.090Z,16.17
2022-10-11T08:13:54.735Z,16.27
2022-10-11T08:16:22.141Z,16.34
2022-10-11T08:18:48.912Z,16.66
2022-10-11T08:21:17.347Z,16.68
2022-10-11T08:23:44.826Z,16.43
2022-10-11T08:26:11.938Z,16.50
2022-10-11T08:28:38.919Z,16.53
2022-10-11T08:31:06.286Z,16.61
2022-10-11T08:33:33.264Z,16.86
2022-10-11T08:36:04.927Z,16.99
2022-10-11T08:38:32.412Z,17.03
2022-10-11T08:41:01.017Z,16.81
2022-10-11T08:43:51.528Z,16.64
2022-10-11T08:46:26.182Z,16.78
2022-10-11T08:48:53.340Z,17.04
2022-10-11T08:51:31.645Z,17.22
2022-10-11T08:54:07.340Z,17.43
2022-10-11T08:56:37.282Z,17.40
2022-10-11T08:59:13.030Z,17.44
2022-10-11T09:02:02.800Z,17.39
2022-10-11T09:04:29.704Z,17.59
2022-10-11T09:07:09.344Z,17.46
2022-10-11T09:09:59.018Z,17.39
2022-10-11T09:12:58.117Z,17.69
2022-10-11T09:15:42.396Z,17.92
2022-10-11T09:18:27.399Z,17.85
2022-10-11T09:21:10.075Z,17.71
2022-10-11T09:24:02.305Z,17.65
2022-10-11T09:26:38.416Z,17.39
2022-10-11T09:29:27.996Z,17.82
2022-10-11T09:31:57.277Z,18.12
2022-10-11T09:34:29.980Z,17.93
2022-10-11T09:37:18.115Z,18.03
2022-10-11T09:40:01.993Z,17.71
2022-10-11T09:42:28.906Z,17.90
2022-10-11T09:44:58.007Z,18.05
2022-10-11T09:47:27.133Z,17.84
2022-10-11T09:50:00.762Z,17.73
2022-10-11T09:52:27.538Z,18.05
2022-10-11T09:54:59.885Z,18.41
2022-10-11T09:57:36.463Z,18.69
2022-10-11T10:00:12.123Z,18.46
2022-10-11T10:02:47.466Z,18.61
2022-10-11T10:05:19.908Z,18.87
2022-10-11T10:08:21.905Z,18.82
2022-10-11T10:10:50.116Z,18.95
2022-10-11T10:13:21.527Z,18.79
2022-10-11T10:15:51.869Z,18.47
2022-10-11T10:18:29.500Z,18.87
2022-10-11T10:20:58.538Z,18.65
2022-10-11T10:23:39.635Z,18.74
2022-10-11T10:26:25.345Z,18.47
2022-10-11T10:29:11.000Z,18.64
2022-10-11T10:32:13.918Z,18.77
2022-10-11T10:35:06.536Z,19.31
2022-10-11T10:37:40.920Z,18.98
2022-10-11T10:40:17.576Z,18.97
2022-10-11T10:42:44.461Z,19.06
2022-10-11T10:45:20.869Z,18.87
2022-10-11T10:48:23.196Z,19.06
2022-10-11T10:50:56.017Z,18.68
2022-10-11T10:53:25.594Z,19.11
2022-10-11T10:56:00.840Z,18.82
2022-10-11T10:59:01.472Z,18.95
2022-10-11T11:01:32.325Z,19.05
2022-10-11T11:04:24.350Z,19.43
2022-10-11T11:06:51.125Z,19.69
2022-10-11T11:09:21.025Z,20.07
2022-10-11T11:12:06.750Z,19.92
2022-10-11T11:14:58.393Z,20.09
2022-10-11T11:17:46.959Z,20.47
2022-10-11T11:20:42.724Z,20.29
2022-10-11T11:23:23.759Z,19.82
2022-10-11T11:26:10.405Z,19.06
2022-10-11T11:29:08.174Z,19.33
2022-10-11T11:32:12.582Z,19.20
2022-10-11T11:34:52.019Z,18.97
2022-10-11T11:37:27.835Z,18.98
2022-10-11T11:40:00.435Z,19.19
2022-10-11T11:42:35.787Z,19.32
2022-10-11T11:45:23.897Z,19.35
2022-10-11T11:48:06.870Z,19.29
2022-10-11T11:50:46.704Z,19.41
2022-10-11T11:53:22.165Z,19.32
2022-10-11T11:56:01.870Z,19.26
2022-10-11T11:58:39.591Z,19.80
2022-10-11T12:01:32.449Z,20.39
2022-10-11T12:04:05.225Z,20.03
2022-10-11T12:06:47.760Z,19.21
2022-10-11T12:09:23.471Z,19.26
2022-10-11T12:11:54.509Z,18.91
2022-10-11T12:14:28.132Z,18.93
2022-10-11T12:17:17.441Z,19.11
2022-10-11T12:20:14.341Z,19.22
2022-10-11T12:22:54.311Z,19.19
2022-10-11T12:25:33.218Z,19.14
2022-10-11T12:28:02.774Z,19.23
2022-10-11T12:30:44.602Z,19.46
2022-10-11T12:33:46.174Z,19.32
2022-10-11T12:36:28.322Z,19.33
2022-10-11T12:39:19.957Z,19.09
2022-10-11T12:41:51.958Z,19.20
2022-10-11T12:44:18.668Z,19.28
2022-10-11T12:46:51.169Z,19.19
2022-10-11T12:49:26.514Z,19.42
2022-10-11T12:52:01.034Z,19.46
2022-10-11T12:54:37.389Z,19.50
2022-10-11T12:57:46.360Z,19.41
2022-10-11T13:00:42.099Z,19.24
2022-10-11T13:03:32.914Z,19.10
2022-10-11T13:06:04.901Z,19.09
2022-10-11T13:08:34.460Z,19.19
2022-10-11T13:11:10.982Z,18.99
2022-10-11T13:13:44.232Z,18.95
2022-10-11T13:16:18.917Z,18.95
2022-10-11T13:18:48.146Z,18.80
2022-10-11T13:21:31.803Z,18.90
2022-10-11T13:24:01.688Z,18.93
2022-10-11T13:26:31.510Z,18.90
2022-10-11T13:28:59.026Z,18.92
2022-10-11T13:31:26.350Z,18.80
2022-10-11T13:33:56.009Z,18.54
2022-10-11T13:36:25.958Z,18.60
2022-10-11T13:39:01.382Z,18.71
2022-10-11T13:41:30.455Z,18.67
2022-10-11T13:43:59.299Z,18.53
2022-10-11T13:46:31.145Z,18.51
2022-10-11T13:49:05.701Z,18.57
2022-10-11T13:51:38.010Z,18.60
2022-10-11T13:54:13.627Z,18.46
2022-10-11T13:56:50.177Z,18.37
2022-10-11T13:59:23.361Z,18.30
2022-10-11T14:02:19.354Z,18.23
2022-10-11T14:04:46.881Z,18.12
2022-10-11T14:07:30.714Z,18.02
2022-10-11T14:09:57.596Z,17.96
2022-10-11T14:12:29.234Z,17.91
2022-10-11T14:14:55.969Z,17.84
2022-10-11T14:17:43.130Z,17.79
2022-10-11T14:20:17.494Z,17.72
2022-10-11T14:22:44.554Z,17.74
2022-10-11T14:25:12.082Z,17.73
2022-10-11T14:27:39.553Z,17.72
2022-10-11T14:30:25.444Z,17.67
2022-10-11T14:32:55.327Z,17.70
2022-10-11T14:35:28.032Z,17.68
2022-10-11T14:37:54.977Z,17.65
2022-10-11T14:40:28.874Z,17.59
2022-10-11T14:42:55.795Z,17.64
2022-10-11T14:45:23.581Z,17.80
2022-10-11T14:47:50.736Z,17.88
2022-10-11T14:50:51.975Z,17.98
2022-10-11T14:53:18.907Z,18.05
2022-10-11T14:55:45.752Z,18.05
2022-10-11T14:58:18.473Z,18.05
2022-10-11T15:00:46.150Z,17.96
2022-10-11T15:03:15.698Z,17.91
2022-10-11T15:05:43.909Z,17.84
2022-10-11T15:08:12.172Z,17.85
2022-10-11T15:10:41.181Z,17.84
2022-10-11T15:13:09.187Z,17.85
2022-10-11T15:18:58.099Z,17.95
2022-10-11T15:21:26.919Z,18.00
2022-10-11T15:23:54.888Z,18.00
2022-10-11T15:26:29.841Z,17.92
2022-10-11T15:28:57.734Z,17.87
2022-10-11T15:31:24.603Z,17.88
2022-10-11T15:33:52.441Z,17.85
2022-10-11T15:36:22.109Z,17.83
2022-10-11T15:38:49.769Z,17.79
2022-10-11T15:41:18.677Z,17.72
2022-10-11T15:43:46.592Z,17.66
2022-10-11T15:46:19.938Z,17.56
2022-10-11T15:48:47.201Z,17.36
2022-10-11T15:51:15.647Z,17.34
2022-10-11T15:53:45.457Z,17.30
2022-10-11T15:56:17.153Z,17.33
2022-10-11T15:58:44.493Z,17.29
2022-10-11T16:01:17.802Z,17.15
2022-10-11T16:03:45.495Z,16.97
2022-10-11T16:06:13.112Z,17.02
2022-10-11T16:08:40.496Z,17.07
2022-10-11T16:11:09.457Z,16.98
2022-10-11T16:13:36.640Z,16.93
2022-10-11T16:16:05.813Z,16.82
2022-10-11T16:22:39.816Z,16.94
2022-10-11T16:25:07.022Z,16.95
2022-10-11T16:27:34.106Z,16.97
2022-10-11T16:30:01.178Z,17.00
2022-10-11T16:32:29.101Z,17.02
2022-10-11T16:34:55.933Z,17.04
2022-10-11T16:37:22.748Z,17.05
2022-10-11T16:39:49.595Z,17.07
2022-10-11T16:42:16.425Z,17.03
2022-10-11T16:44:43.167Z,17.05
2022-10-11T16:47:09.949Z,17.02
2022-10-11T16:49:36.769Z,17.00
2022-10-11T16:52:03.694Z,17.05
2022-10-11T16:54:31.580Z,16.68
2022-10-11T16:56:59.427Z,16.26
2022-10-11T16:59:26.460Z,16.29
2022-10-11T17:01:53.338Z,16.23
2022-10-11T17:04:20.189Z,16.39
2022-10-11T17:06:47.117Z,16.50
2022-10-11T17:09:13.883Z,16.48
2022-10-11T17:11:40.755Z,16.40
2022-10-11T17:14:07.647Z,16.13
2022-10-11T17:16:35.569Z,16.07
2022-10-11T17:19:03.089Z,15.96
2022-10-11T17:21:29.875Z,15.83
2022-10-11T17:23:56.898Z,15.89
2022-10-11T17:26:26.221Z,15.96
2022-10-11T17:28:57.546Z,15.84
2022-10-11T17:31:25.300Z,16.00
2022-10-11T17:33:52.236Z,16.15
2022-10-11T17:36:23.772Z,16.24
2022-10-11T17:38:51.797Z,16.31
2022-10-11T17:41:19.431Z,16.38
2022-10-11T17:43:47.271Z,16.45
2022-10-11T17:46:16.016Z,16.44
2022-10-11T17:48:42.860Z,16.44
2022-10-11T17:51:15.989Z,16.42
2022-10-11T17:53:43.311Z,16.41
2022-10-11T17:56:13.092Z,16.42
2022-10-11T17:58:40.769Z,16.33
2022-10-11T18:01:11.112Z,16.30
2022-10-11T18:03:38.714Z,16.38
2022-10-11T18:06:14.009Z,16.37
2022-10-11T18:08:47.021Z,16.40
2022-10-11T18:11:16.504Z,16.46
2022-10-11T18:13:43.868Z,16.48
2022-10-11T18:16:11.488Z,16.48
2022-10-11T18:19:01.829Z,16.43
2022-10-11T18:21:34.034Z,16.48
2022-10-11T18:24:13.838Z,16.46
2022-10-11T18:26:40.650Z,16.51
2022-10-11T18:29:07.728Z,16.45
2022-10-11T18:31:35.139Z,16.44
2022-10-11T18:34:03.381Z,16.40
2022-10-11T18:36:31.958Z,16.35
2022-10-11T18:39:01.966Z,16.26
2022-10-11T18:41:33.027Z,16.20
2022-10-11T18:44:02.394Z,16.22
2022-10-11T18:46:29.729Z,16.21
2022-10-11T18:48:57.760Z,16.20
2022-10-11T18:51:27.027Z,16.17
2022-10-11T18:53:54.922Z,16.17
2022-10-11T18:56:23.207Z,16.06
2022-10-11T18:58:51.039Z,15.94
2022-10-11T19:01:24.015Z,15.71
2022-10-11T19:03:53.113Z,15.66
2022-10-11T19:06:26.085Z,15.35
2022-10-11T19:09:01.118Z,15.17
2022-10-11T19:11:28.465Z,15.29
2022-10-11T19:13:57.135Z,15.36
2022-10-11T19:16:24.580Z,15.26
2022-10-11T19:18:52.091Z,15.28
2022-10-11T19:21:19.845Z,15.41
2022-10-11T19:23:48.312Z,15.31
2022-10-11T19:26:20.959Z,15.31
2022-10-11T19:28:49.241Z,15.17
2022-10-11T19:31:16.415Z,15.21
2022-10-11T19:33:44.920Z,15.28
2022-10-11T19:36:13.906Z,15.22
2022-10-11T19:38:44.828Z,15.01
2022-10-11T19:41:13.424Z,15.03
2022-10-11T19:43:40.225Z,15.08
2022-10-11T19:46:09.802Z,14.98
2022-10-11T19:48:37.906Z,14.99
2022-10-11T19:51:11.035Z,14.93
2022-10-11T19:53:38.425Z,14.72
2022-10-11T19:56:08.441Z,14.68
2022-10-11T19:58:35.444Z,14.82
2022-10-11T20:01:05.257Z,14.96
2022-10-11T20:03:32.480Z,15.07
2022-10-11T20:06:04.540Z,15.11
2022-10-11T20:08:31.848Z,15.09
2022-10-11T20:10:59.644Z,15.12
2022-10-11T20:13:31.163Z,15.10
2022-10-11T20:16:07.115Z,15.07
2022-10-11T20:18:34.390Z,15.05
2022-10-11T20:21:04.551Z,15.05
2022-10-11T20:23:32.398Z,14.99
2022-10-11T20:26:03.759Z,15.04
2022-10-11T20:28:32.100Z,15.07
2022-10-11T20:31:02.635Z,15.08
2022-10-11T20:33:31.200Z,15.09
2022-10-11T20:36:07.210Z,15.00
2022-10-11T20:38:35.956Z,14.52
2022-10-11T20:41:08.063Z,14.36
2022-10-11T20:43:35.403Z,14.46
2022-10-11T20:46:15.562Z,14.50
2022-10-11T20:48:58.852Z,14.28
2022-10-11T20:51:29.332Z,14.36
2022-10-11T20:53:56.070Z,14.52
2022-10-11T20:56:23.122Z,14.60
2022-10-11T20:58:54.347Z,14.67
2022-10-11T21:01:26.967Z,14.72
2022-10-11T21:03:54.406Z,14.72
2022-10-11T21:06:21.230Z,14.73
2022-10-11T21:08:48.009Z,14.76
2022-10-11T21:11:14.914Z,14.68
2022-10-11T21:13:41.721Z,14.48
2022-10-11T21:16:15.909Z,14.58
2022-10-11T21:18:43.052Z,14.57
2022-10-11T21:21:14.377Z,14.34
2022-10-11T21:23:42.123Z,14.11
2022-10-11T21:26:12.656Z,14.18
2022-10-11T21:28:41.091Z,14.19
2022-10-11T21:31:10.568Z,14.17
2022-10-11T21:33:38.707Z,14.17
2022-10-11T21:36:10.653Z,13.98
2022-10-11T21:38:37.933Z,14.25
2022-10-11T21:41:07.562Z,13.80
2022-10-11T21:43:35.840Z,13.33
2022-10-11T21:46:14.481Z,13.34
2022-10-11T21:48:41.392Z,13.69
2022-10-11T21:53:46.409Z,13.17
2022-10-11T21:56:13.172Z,13.35
2022-10-11T21:58:40.024Z,13.23
2022-10-11T22:01:07.082Z,12.99
2022-10-11T22:03:34.030Z,13.00
2022-10-11T22:06:05.123Z,13.08
2022-10-11T22:08:32.497Z,13.24
2022-10-11T22:11:00.745Z,13.28
2022-10-11T22:13:30.045Z,13.35
2022-10-11T22:15:57.098Z,13.41
2022-10-11T22:18:24.951Z,13.42
2022-10-11T22:20:51.764Z,13.38
2022-10-11T22:23:19.130Z,13.45
2022-10-11T22:25:46.418Z,13.42
2022-10-11T22:28:13.340Z,13.42
2022-10-11T22:30:40.249Z,13.51
2022-10-11T22:33:07.035Z,13.45
2022-10-11T22:35:37.509Z,13.26
2022-10-11T22:38:05.907Z,13.01
2022-10-11T22:40:32.773Z,12.96
2022-10-11T22:42:59.646Z,12.74
2022-10-11T22:45:26.568Z,12.56
2022-10-11T22:47:53.309Z,12.84
2022-10-11T22:50:20.105Z,12.97
2022-10-11T22:52:47.109Z,12.96
2022-10-11T22:55:19.591Z,12.92
2022-10-11T22:57:46.900Z,13.07
2022-10-11T23:00:13.954Z,13.17
2022-10-11T23:02:40.695Z,13.23
2022-10-11T23:05:07.839Z,13.29
2022-10-11T23:07:34.651Z,13.38
2022-10-11T23:10:01.779Z,13.42
2022-10-11T23:12:28.613Z,13.43
2022-10-11T23:14:55.322Z,13.15
2022-10-11T23:17:22.087Z,13.06
2022-10-11T23:19:48.921Z,12.85
2022-10-11T23:22:16.100Z,12.61
2022-10-11T23:24:42.906Z,12.54
2022-10-11T23:27:10.006Z,12.54
2022-10-11T23:29:36.804Z,12.57
2022-10-11T23:32:03.650Z,12.50
2022-10-11T23:34:30.657Z,12.52
2022-10-11T23:36:57.597Z,12.46
2022-10-11T23:39:24.503Z,12.37
2022-10-11T23:41:51.337Z,12.38
2022-10-11T23:44:18.210Z,12.42
2022-10-11T23:46:45.096Z,12.16
2022-10-11T23:49:12.375Z,12.04
2022-10-11T23:51:39.624Z,11.93
2022-10-11T23:54:06.732Z,11.96
2022-10-11T23:56:33.788Z,11.94
2022-10-11T23:59:00.565Z,12.00
